createdAt,value
2022-12-19T00:01:07.230Z,102157.22
2022-12-19T00:03:53.908Z,102197.00
2022-12-19T00:06:43.464Z,102221.63
2022-12-19T00:09:28.703Z,102220.56
2022-12-19T00:12:19.024Z,102180.50
2022-12-19T00:15:03.189Z,102244.44
2022-12-19T00:17:47.728Z,102258.56
2022-12-19T00:20:31.470Z,102243.44
2022-12-19T00:23:15.164Z,102200.41
2022-12-19T00:26:08.291Z,102229.16
2022-12-19T00:28:57.028Z,102264.47
2022-12-19T00:31:41.471Z,102265.06
2022-12-19T00:34:25.381Z,102243.13
2022-12-19T00:37:09.118Z,102272.47
2022-12-19T00:39:52.882Z,102249.16
2022-12-19T00:42:36.631Z,102255.13
2022-12-19T00:45:22.038Z,102200.88
2022-12-19T00:48:06.106Z,102239.72
2022-12-19T00:50:50.935Z,102193.75
2022-12-19T00:53:34.994Z,102222.19
2022-12-19T00:56:21.589Z,102174.44
2022-12-19T00:59:05.432Z,102130.56
2022-12-19T01:01:50.703Z,102200.03
2022-12-19T01:04:39.734Z,102210.75
2022-12-19T01:07:29.224Z,102219.13
2022-12-19T01:10:13.024Z,102223.28
2022-12-19T01:12:56.813Z,102209.72
2022-12-19T01:15:41.017Z,102232.50
2022-12-19T01:18:26.129Z,102182.53
2022-12-19T01:21:11.844Z,102234.25
2022-12-19T01:23:55.556Z,102244.47
2022-12-19T01:26:39.899Z,102235.72
2022-12-19T01:29:23.712Z,102195.84
2022-12-19T01:32:07.545Z,102240.66
2022-12-19T01:34:52.823Z,102243.28
2022-12-19T01:37:36.581Z,102246.78
2022-12-19T01:40:21.288Z,102249.28
2022-12-19T01:43:05.584Z,102245.78
2022-12-19T01:45:51.276Z,102257.38
2022-12-19T01:48:40.193Z,102235.84
2022-12-19T01:51:29.993Z,102258.81
2022-12-19T01:54:19.852Z,102200.59
2022-12-19T01:57:08.479Z,102255.97
2022-12-19T01:59:55.654Z,102251.25
2022-12-19T02:02:43.229Z,102274.38
2022-12-19T02:05:27.304Z,102265.09
2022-12-19T02:08:13.812Z,102287.78
2022-12-19T02:10:57.592Z,102284.13
2022-12-19T02:13:42.245Z,102254.41
2022-12-19T02:16:42.209Z,102289.72
2022-12-19T02:19:55.607Z,102290.72
2022-12-19T02:22:54.077Z,102289.16
2022-12-19T02:26:12.156Z,102305.97
2022-12-19T02:29:18.530Z,102311.59
2022-12-19T02:32:08.994Z,102299.78
2022-12-19T02:34:59.702Z,102291.50
2022-12-19T02:37:49.102Z,102308.78
2022-12-19T02:40:41.175Z,102309.59
2022-12-19T02:43:32.123Z,102322.81
2022-12-19T02:46:18.177Z,102323.78
2022-12-19T02:49:04.105Z,102217.66
2022-12-19T02:51:47.944Z,102324.47
2022-12-19T02:54:31.755Z,102339.09
2022-12-19T02:57:25.125Z,102326.56
2022-12-19T03:00:16.292Z,102316.88
2022-12-19T03:03:12.052Z,102345.50
2022-12-19T03:06:05.425Z,102352.75
2022-12-19T03:08:55.321Z,102293.00
2022-12-19T03:11:42.400Z,102343.47
2022-12-19T03:14:29.615Z,102352.50
2022-12-19T03:17:13.567Z,102368.53
2022-12-19T03:19:57.891Z,102367.91
2022-12-19T03:22:43.142Z,102373.19
2022-12-19T03:25:27.594Z,102372.81
2022-12-19T03:28:17.338Z,102376.03
2022-12-19T03:31:04.160Z,102383.69
2022-12-19T03:33:51.770Z,102347.94
2022-12-19T03:36:41.493Z,102391.78
2022-12-19T03:39:27.867Z,102347.16
2022-12-19T03:42:30.946Z,102368.19
2022-12-19T03:45:22.056Z,102391.09
2022-12-19T03:48:10.524Z,102389.56
2022-12-19T03:51:04.537Z,102389.97
2022-12-19T03:53:59.324Z,102393.94
2022-12-19T03:56:54.285Z,102387.31
2022-12-19T03:59:45.981Z,102403.94
2022-12-19T04:02:37.584Z,102410.94
2022-12-19T04:05:23.736Z,102404.69
2022-12-19T04:08:09.367Z,102397.84
2022-12-19T04:11:00.010Z,102406.13
2022-12-19T04:13:48.497Z,102396.22
2022-12-19T04:16:40.993Z,102412.16
2022-12-19T04:19:32.152Z,102413.44
2022-12-19T04:22:21.854Z,102410.97
2022-12-19T04:25:09.074Z,102413.09
2022-12-19T04:27:56.989Z,102415.50
2022-12-19T04:30:43.971Z,102418.06
2022-12-19T04:33:27.871Z,102411.81
2022-12-19T04:36:12.800Z,102386.56
2022-12-19T04:38:56.842Z,102418.66
2022-12-19T04:41:40.824Z,102385.66
2022-12-19T04:44:24.724Z,102387.75
2022-12-19T04:47:09.872Z,102440.81
2022-12-19T04:49:53.634Z,102425.56
2022-12-19T04:52:37.325Z,102445.22
2022-12-19T04:55:21.137Z,102439.75
2022-12-19T04:58:06.243Z,102458.81
2022-12-19T05:00:50.430Z,102431.28
2022-12-19T05:03:36.178Z,102438.22
2022-12-19T05:06:20.741Z,102467.03
2022-12-19T05:09:05.275Z,102471.06
2022-12-19T05:11:49.316Z,102480.03
2022-12-19T05:14:33.389Z,102437.22
2022-12-19T05:17:17.550Z,102478.00
2022-12-19T05:20:02.980Z,102431.16
2022-12-19T05:22:47.270Z,102440.69
2022-12-19T05:25:31.349Z,102493.81
2022-12-19T05:28:16.007Z,102493.56
2022-12-19T05:31:08.319Z,102452.22
2022-12-19T05:33:52.302Z,102504.34
2022-12-19T05:36:37.764Z,102511.31
2022-12-19T05:39:21.664Z,102466.69
2022-12-19T05:42:09.676Z,102510.78
2022-12-19T05:44:56.084Z,102516.47
2022-12-19T05:47:39.744Z,102522.69
2022-12-19T05:50:23.582Z,102524.78
2022-12-19T05:53:09.644Z,102522.50
2022-12-19T05:55:53.452Z,102527.16
2022-12-19T05:58:37.804Z,102534.00
2022-12-19T06:01:23.795Z,102529.97
2022-12-19T06:04:07.871Z,102543.81
2022-12-19T06:06:51.723Z,102548.25
2022-12-19T06:09:37.242Z,102544.31
2022-12-19T06:12:21.044Z,102541.22
2022-12-19T06:15:05.447Z,102556.63
2022-12-19T06:17:49.208Z,102564.19
2022-12-19T06:20:33.082Z,102578.25
2022-12-19T06:23:16.957Z,102581.25
2022-12-19T06:26:03.364Z,102572.81
2022-12-19T06:28:47.246Z,102601.28
2022-12-19T06:31:31.792Z,102588.31
2022-12-19T06:34:39.469Z,102596.75
2022-12-19T06:37:19.686Z,102576.75
2022-12-19T06:40:03.586Z,102570.81
2022-12-19T06:42:49.301Z,102609.34
2022-12-19T06:45:33.083Z,102608.00
2022-12-19T06:48:16.889Z,102605.47
2022-12-19T06:51:00.783Z,102596.75
2022-12-19T06:53:44.584Z,102603.16
2022-12-19T06:56:28.551Z,102621.03
2022-12-19T06:59:16.827Z,102616.66
2022-12-19T07:02:06.550Z,102611.19
2022-12-19T07:04:52.939Z,102623.25
2022-12-19T07:07:37.221Z,102617.22
2022-12-19T07:10:20.993Z,102589.53
2022-12-19T07:13:05.525Z,102624.84
2022-12-19T07:15:52.090Z,102633.22
2022-12-19T07:18:38.136Z,102624.81
2022-12-19T07:21:22.321Z,102622.25
2022-12-19T07:24:07.991Z,102653.00
2022-12-19T07:26:52.915Z,102651.75
2022-12-19T07:29:36.727Z,102648.38
2022-12-19T07:32:22.308Z,102660.28
2022-12-19T07:35:06.911Z,102658.47
2022-12-19T07:37:51.119Z,102667.63
2022-12-19T07:40:35.602Z,102668.22
2022-12-19T07:43:19.434Z,102675.75
2022-12-19T07:46:03.468Z,102671.50
2022-12-19T07:48:49.206Z,102686.16
2022-12-19T07:51:33.534Z,102686.75
2022-12-19T07:54:17.359Z,102687.00
2022-12-19T07:57:02.497Z,102696.34
2022-12-19T07:59:46.852Z,102688.75
2022-12-19T08:02:30.780Z,102695.84
2022-12-19T08:05:16.143Z,102670.63
2022-12-19T08:07:59.830Z,102689.88
2022-12-19T08:10:43.758Z,102703.78
2022-12-19T08:13:30.064Z,102700.88
2022-12-19T08:16:17.554Z,102704.63
2022-12-19T08:19:01.365Z,102702.56
2022-12-19T08:21:46.522Z,102698.84
2022-12-19T08:24:30.981Z,102706.13
2022-12-19T08:27:14.779Z,102697.09
2022-12-19T08:29:58.650Z,102692.97
2022-12-19T08:32:42.587Z,102696.38
2022-12-19T08:35:26.305Z,102690.03
2022-12-19T08:38:11.490Z,102677.25
2022-12-19T08:40:55.560Z,102700.22
2022-12-19T08:43:39.735Z,102622.97
2022-12-19T08:46:24.145Z,102681.94
2022-12-19T08:49:08.000Z,102694.19
2022-12-19T08:51:51.962Z,102693.31
2022-12-19T08:54:37.297Z,102683.84
2022-12-19T08:57:21.067Z,102677.31
2022-12-19T09:00:06.089Z,102678.16
2022-12-19T09:02:51.775Z,102668.34
2022-12-19T09:06:05.128Z,102671.09
2022-12-19T09:08:40.126Z,102646.41
2022-12-19T09:11:25.308Z,102667.59
2022-12-19T09:14:09.067Z,102663.31
2022-12-19T09:16:52.853Z,102668.59
2022-12-19T09:19:36.831Z,102657.94
2022-12-19T09:22:21.219Z,102646.81
2022-12-19T09:25:11.838Z,102661.91
2022-12-19T09:28:28.504Z,102619.13
2022-12-19T09:31:04.370Z,102645.31
2022-12-19T09:33:49.013Z,102633.41
2022-12-19T09:36:32.805Z,102653.69
2022-12-19T09:39:17.569Z,102652.59
2022-12-19T09:42:40.445Z,102651.13
2022-12-19T09:45:51.029Z,102625.06
2022-12-19T09:48:34.763Z,102632.47
2022-12-19T09:51:31.512Z,102631.97
2022-12-19T09:54:18.572Z,102623.34
2022-12-19T09:57:06.269Z,102620.16
2022-12-19T09:59:55.467Z,102613.31
2022-12-19T10:02:48.694Z,102600.50
2022-12-19T10:06:04.631Z,102607.69
2022-12-19T10:09:10.046Z,102569.56
2022-12-19T10:12:45.180Z,102592.97
2022-12-19T10:15:10.474Z,102595.09
2022-12-19T10:18:23.067Z,102590.06
2022-12-19T10:21:10.204Z,102565.59
2022-12-19T10:24:06.607Z,102575.78
2022-12-19T10:26:53.480Z,102551.59
2022-12-19T10:30:01.352Z,102582.09
2022-12-19T10:33:00.764Z,102583.88
2022-12-19T10:35:49.423Z,102572.44
2022-12-19T10:38:47.353Z,102578.84
2022-12-19T10:41:43.723Z,102573.13
2022-12-19T10:44:30.970Z,102573.94
2022-12-19T10:47:18.357Z,102576.09
2022-12-19T10:50:07.558Z,102562.25
2022-12-19T10:52:56.981Z,102558.25
2022-12-19T10:55:44.478Z,102575.22
2022-12-19T10:58:30.155Z,102524.25
2022-12-19T11:01:16.464Z,102567.69
2022-12-19T11:04:20.055Z,102561.22
2022-12-19T11:07:18.571Z,102549.31
2022-12-19T11:11:40.366Z,102509.28
2022-12-19T11:19:18.751Z,102523.31
2022-12-19T11:20:32.651Z,102560.44
2022-12-19T11:29:17.975Z,102566.09
2022-12-19T11:29:25.173Z,102549.00
2022-12-19T11:30:08.453Z,102550.72
2022-12-19T11:31:52.921Z,102556.44
2022-12-19T11:32:46.784Z,102534.25
2022-12-19T11:35:36.466Z,102551.88
2022-12-19T11:38:34.023Z,102549.75
2022-12-19T11:41:23.777Z,102547.06
2022-12-19T11:44:12.696Z,102558.13
2022-12-19T11:47:04.909Z,102572.63
2022-12-19T11:49:55.988Z,102532.03
2022-12-19T11:55:52.733Z,102552.59
2022-12-19T11:58:37.822Z,102553.66
2022-12-19T12:01:40.616Z,102549.66
2022-12-19T12:04:48.230Z,102549.69
2022-12-19T12:08:39.276Z,102549.56
2022-12-19T12:15:20.280Z,102549.44
2022-12-19T12:25:48.652Z,102550.22
2022-12-19T12:31:12.696Z,102556.97
2022-12-19T12:31:31.783Z,102559.34
2022-12-19T12:31:44.953Z,102560.84
2022-12-19T12:31:49.213Z,102567.69
2022-12-19T12:35:30.458Z,102510.63
2022-12-19T12:35:38.456Z,102557.16
2022-12-19T12:41:11.132Z,102523.91
2022-12-19T12:44:07.874Z,102570.88
2022-12-19T12:47:02.060Z,102516.53
2022-12-19T12:49:50.279Z,102579.34
2022-12-19T12:52:37.451Z,102560.66
2022-12-19T12:55:27.322Z,102564.31
2022-12-19T12:58:44.786Z,102558.22
2022-12-19T13:01:35.498Z,102564.72
2022-12-19T13:04:44.496Z,102568.31
2022-12-19T13:07:35.703Z,102573.59
2022-12-19T13:10:25.768Z,102549.03
2022-12-19T13:13:19.791Z,102568.81
2022-12-19T13:16:53.104Z,102575.59
2022-12-19T13:19:40.393Z,102578.28
2022-12-19T13:22:39.490Z,102585.00
2022-12-19T13:25:50.563Z,102590.53
2022-12-19T13:28:41.862Z,102583.25
2022-12-19T13:31:25.795Z,102598.50
2022-12-19T13:34:22.280Z,102536.16
2022-12-19T13:39:49.599Z,102577.16
2022-12-19T13:40:34.134Z,102602.09
2022-12-19T13:43:38.009Z,102577.59
2022-12-19T13:46:32.366Z,102586.25
2022-12-19T13:49:20.630Z,102598.81
2022-12-19T13:52:06.183Z,102589.53
2022-12-19T13:54:53.282Z,102600.59
2022-12-19T13:57:39.740Z,102588.47
2022-12-19T14:00:32.742Z,102618.22
2022-12-19T14:03:22.251Z,102597.72
2022-12-19T14:06:16.475Z,102611.88
2022-12-19T14:09:25.231Z,102615.31
2022-12-19T14:13:49.340Z,102582.31
2022-12-19T14:15:45.818Z,102610.13
2022-12-19T14:18:43.065Z,102609.06
2022-12-19T14:22:05.975Z,102634.50
2022-12-19T14:24:35.159Z,102624.44
2022-12-19T14:28:20.906Z,102573.75
2022-12-19T14:30:32.879Z,102620.03
2022-12-19T14:33:43.500Z,102621.31
2022-12-19T14:36:26.559Z,102631.84
2022-12-19T14:39:25.330Z,102622.44
2022-12-19T14:43:30.262Z,102618.63
2022-12-19T14:52:25.702Z,102572.97
2022-12-19T14:54:08.629Z,102626.19
2022-12-19T14:54:13.431Z,102608.34
2022-12-19T14:56:13.604Z,102619.28
2022-12-19T14:58:54.241Z,102633.25
2022-12-19T15:01:28.141Z,102633.53
2022-12-19T15:04:52.199Z,102634.91
2022-12-19T15:07:26.522Z,102625.69
2022-12-19T15:11:08.479Z,102630.94
2022-12-19T15:14:56.242Z,102650.19
2022-12-19T15:16:34.747Z,102651.38
2022-12-19T15:19:18.616Z,102651.25
2022-12-19T15:22:02.670Z,102665.19
2022-12-19T15:24:46.614Z,102626.44
2022-12-19T15:27:30.398Z,102656.81
2022-12-19T15:30:18.613Z,102656.97
2022-12-19T15:33:03.896Z,102668.47
2022-12-19T15:35:47.813Z,102668.47
2022-12-19T15:38:31.584Z,102670.22
2022-12-19T15:41:21.753Z,102671.44
2022-12-19T15:44:11.016Z,102679.47
2022-12-19T15:46:55.498Z,102672.25
2022-12-19T15:49:41.210Z,102645.44
2022-12-19T15:52:25.755Z,102680.13
2022-12-19T15:55:13.859Z,102619.59
2022-12-19T15:58:01.040Z,102669.88
2022-12-19T16:00:51.506Z,102666.25
2022-12-19T16:03:38.049Z,102666.38
2022-12-19T16:06:23.320Z,102667.47
2022-12-19T16:09:18.495Z,102673.09
2022-12-19T16:12:02.512Z,102674.28
2022-12-19T16:14:48.849Z,102673.56
2022-12-19T16:17:34.252Z,102676.38
2022-12-19T16:20:19.686Z,102678.25
2022-12-19T16:23:05.227Z,102663.31
2022-12-19T16:25:51.088Z,102631.81
2022-12-19T16:28:35.041Z,102676.97
2022-12-19T16:31:24.709Z,102684.16
2022-12-19T16:34:15.343Z,102687.94
2022-12-19T16:36:59.220Z,102683.97
2022-12-19T16:39:44.469Z,102682.53
2022-12-19T16:42:29.336Z,102664.56
2022-12-19T16:45:24.840Z,102675.03
2022-12-19T16:48:19.645Z,102636.78
2022-12-19T16:51:03.675Z,102683.72
2022-12-19T16:53:48.352Z,102617.91
2022-12-19T16:56:36.308Z,102495.09
2022-12-19T16:59:22.670Z,102675.41
2022-12-19T17:02:32.412Z,102688.66
2022-12-19T17:05:19.934Z,102679.53
2022-12-19T17:08:03.745Z,102672.63
2022-12-19T17:10:48.413Z,102668.50
2022-12-19T17:13:33.740Z,102679.69
2022-12-19T17:16:18.046Z,102673.91
2022-12-19T17:19:02.532Z,102681.75
2022-12-19T17:21:46.326Z,102685.16
2022-12-19T17:24:30.086Z,102682.63
2022-12-19T17:27:14.159Z,102679.50
2022-12-19T17:29:59.361Z,102694.66
2022-12-19T17:32:44.265Z,102687.47
2022-12-19T17:35:30.754Z,102689.91
2022-12-19T17:38:16.367Z,102634.06
2022-12-19T17:41:00.575Z,102672.66
2022-12-19T17:43:44.747Z,102631.28
2022-12-19T17:46:32.053Z,102674.13
2022-12-19T17:49:18.739Z,102671.34
2022-12-19T17:52:02.779Z,102674.63
2022-12-19T17:54:47.109Z,102688.97
2022-12-19T17:57:31.181Z,102682.78
2022-12-19T18:00:16.459Z,102615.34
2022-12-19T18:03:05.148Z,102666.72
2022-12-19T18:05:50.674Z,102648.22
2022-12-19T18:08:34.665Z,102669.16
2022-12-19T18:11:21.716Z,102661.00
2022-12-19T18:14:05.633Z,102680.84
2022-12-19T18:16:51.653Z,102677.94
2022-12-19T18:19:36.959Z,102664.97
2022-12-19T18:22:22.143Z,102674.00
2022-12-19T18:25:16.650Z,102665.59
2022-12-19T18:28:00.463Z,102649.81
2022-12-19T18:30:45.424Z,102646.44
2022-12-19T18:33:34.593Z,102646.09
2022-12-19T18:36:22.672Z,102618.94
2022-12-19T18:39:18.889Z,102663.53
2022-12-19T18:42:02.724Z,102659.69
2022-12-19T18:44:46.468Z,102652.34
2022-12-19T18:47:30.258Z,102644.66
2022-12-19T18:50:20.746Z,102640.72
2022-12-19T18:53:11.791Z,102639.22
2022-12-19T18:55:55.684Z,102641.09
2022-12-19T18:58:39.640Z,102641.09
2022-12-19T19:01:23.495Z,102631.84
2022-12-19T19:04:07.496Z,102659.75
2022-12-19T19:06:52.643Z,102651.28
2022-12-19T19:09:38.055Z,102653.91
2022-12-19T19:12:42.650Z,102632.78
2022-12-19T19:15:29.835Z,102619.66
2022-12-19T19:18:13.892Z,102620.47
2022-12-19T19:21:01.234Z,102610.63
2022-12-19T19:23:49.517Z,102610.19
2022-12-19T19:26:34.720Z,102615.63
2022-12-19T19:29:19.799Z,102621.44
2022-12-19T19:32:03.761Z,102618.53
2022-12-19T19:34:47.706Z,102628.88
2022-12-19T19:37:31.457Z,102599.66
2022-12-19T19:40:15.889Z,102615.91
2022-12-19T19:43:01.004Z,102639.75
2022-12-19T19:45:45.157Z,102628.19
2022-12-19T19:48:29.118Z,102633.13
2022-12-19T19:51:16.402Z,102631.50
2022-12-19T19:54:00.189Z,102638.09
2022-12-19T19:56:43.976Z,102646.53
2022-12-19T19:59:31.923Z,102638.59
2022-12-19T20:02:16.908Z,102613.09
2022-12-19T20:05:01.295Z,102640.22
2022-12-19T20:07:45.522Z,102616.75
2022-12-19T20:10:29.232Z,102557.66
2022-12-19T20:13:13.027Z,102596.50
2022-12-19T20:16:04.386Z,102570.44
2022-12-19T20:18:49.876Z,102592.88
2022-12-19T20:21:33.753Z,102584.69
2022-12-19T20:24:17.611Z,102575.41
2022-12-19T20:27:01.337Z,102581.16
2022-12-19T20:29:45.461Z,102581.03
2022-12-19T20:32:31.095Z,102583.88
2022-12-19T20:35:16.212Z,102579.78
2022-12-19T20:37:59.944Z,102572.44
2022-12-19T20:40:44.303Z,102562.78
2022-12-19T20:43:28.118Z,102577.03
2022-12-19T20:46:14.080Z,102574.44
2022-12-19T20:49:00.114Z,102604.41
2022-12-19T20:51:44.439Z,102606.66
2022-12-19T20:54:28.289Z,102614.50
2022-12-19T20:57:12.083Z,102619.66
2022-12-19T20:59:55.769Z,102630.84
2022-12-19T21:03:16.907Z,102624.78
2022-12-19T21:05:44.847Z,102618.16
2022-12-19T21:08:29.251Z,102615.59
2022-12-19T21:11:14.019Z,102597.03
2022-12-19T21:13:57.986Z,102529.16
2022-12-19T21:16:41.840Z,102589.00
2022-12-19T21:19:25.723Z,102577.75
2022-12-19T21:22:11.077Z,102509.22
2022-12-19T21:24:54.853Z,102578.09
2022-12-19T21:27:38.639Z,102599.66
2022-12-19T21:30:22.470Z,102593.25
2022-12-19T21:33:06.467Z,102600.66
2022-12-19T21:35:50.096Z,102568.00
2022-12-19T21:38:35.390Z,102585.63
2022-12-19T21:41:19.746Z,102591.13
2022-12-19T21:44:03.534Z,102572.06
2022-12-19T21:46:47.307Z,102568.16
2022-12-19T21:49:31.205Z,102559.78
2022-12-19T21:52:15.088Z,102560.50
2022-12-19T21:55:00.313Z,102558.41
2022-12-19T21:57:44.178Z,102502.50
2022-12-19T22:00:28.045Z,102566.88
2022-12-19T22:03:14.763Z,102563.44
2022-12-19T22:05:59.414Z,102557.34
2022-12-19T22:08:43.579Z,102551.69
2022-12-19T22:11:29.967Z,102374.22
2022-12-19T22:14:15.186Z,102528.13
2022-12-19T22:16:59.034Z,102511.19
2022-12-19T22:19:42.902Z,102542.75
2022-12-19T22:22:26.732Z,102542.19
2022-12-19T22:25:11.062Z,102536.44
2022-12-19T22:27:57.806Z,102539.19
2022-12-19T22:30:41.631Z,102494.59
2022-12-19T22:33:25.455Z,102531.66
2022-12-19T22:36:11.770Z,102524.22
2022-12-19T22:39:00.387Z,102528.81
2022-12-19T22:41:44.288Z,102514.06
2022-12-19T22:44:29.445Z,102507.38
2022-12-19T22:47:13.127Z,102521.53
2022-12-19T22:49:56.923Z,102517.03
2022-12-19T22:52:40.759Z,102358.84
2022-12-19T22:55:24.485Z,102513.88
2022-12-19T22:58:08.452Z,102510.47
2022-12-19T23:00:53.602Z,102497.91
2022-12-19T23:03:37.531Z,102505.34
2022-12-19T23:06:22.588Z,102494.38
2022-12-19T23:09:07.715Z,102495.94
2022-12-19T23:11:51.563Z,102498.34
2022-12-19T23:14:35.366Z,102496.97
2022-12-19T23:17:20.523Z,102512.25
2022-12-19T23:20:04.802Z,102497.69
2022-12-19T23:22:48.786Z,102485.41
2022-12-19T23:25:32.631Z,102499.19
2022-12-19T23:28:16.259Z,102502.25
2022-12-19T23:31:06.895Z,102490.22
2022-12-19T23:33:52.665Z,102485.59
2022-12-19T23:39:40.089Z,102472.50
2022-12-19T23:42:23.839Z,102469.28
2022-12-19T23:45:08.998Z,102469.34
2022-12-19T23:47:52.735Z,102449.44
2022-12-19T23:50:37.857Z,102458.13
2022-12-19T23:53:21.645Z,102462.56
2022-12-19T23:56:08.375Z,102463.00
2022-12-19T23:58:52.195Z,102460.31
